首页
METAR-TAF:

METAR-TAF

机场 :

L.F.韋德國際機場

百慕大, 百慕大

纬度: 32-22N, 经度: 064-41W, 海拔: 6米

当前天气观测

该预报发布于8分钟前的19:32 UTC
风速13节,风向
温度 24°C
湿度 89%
气压 1008 hPa
能見度: 6000
多云层高于1400英尺
多云层高于5600英尺
多云层高于11000英尺
阴天层高于15000英尺
阵雨

METAR: TXKF 171932Z 19013KT 6000 SHRA BKN014 BKN056 BKN110 OVC150 24/22 Q1008

时间: 15:40 (19:40 UTC)

预报

该预报发布于2小时和9分钟前的17:31 UTC
预报有效从17日的 18点(UTC)到 18日的 18点(UTC)
风速20节,风向
能见度10公里或以上
散云层高于2000英尺
多云层高于6500英尺
阴天层高于18000英尺
附近有阵雨
几率 30% :
短暂存在
从 17日的 21点(UTC)到 17日的 24点(UTC)
能見度: 4800
多云层高于1400英尺
阵雨
短暂存在
从 18日的 00点(UTC)到 18日的 12点(UTC)
风速20节,风向,有时为30节阵风
能見度: 4800
多云层高于1400英尺
阵雨
几率 30% :
短暂存在
从 18日的 03点(UTC)到 18日的 12点(UTC)
风速25节,风向,有时为35节阵风
能見度: 3200
多云层高于900英尺, 积雨云.
雷暴, 雨

TAF: TXKF 171731Z 1718/1818 17020KT 9999 VCSH SCT020 BKN065 OVC180 PROB30 TEMPO 1721/1724 4800 SHRA BKN014 TEMPO 1800/1812 18020G30KT 4800 SHRA BKN014 PROB30 TEMPO 1803/1812 18025G35KT 3200 TSRA BKN009CB

超过4000个机场的气象观测和天气预报(METAR&TAF报告)。

可查询的气象台以黄色和红色小点在地图上表示。

将鼠标移到小点上方,可查看气象台名称。

然后点击查看天气观测和预报。

如需切换地图:点击带黑十字的绿色按钮放大地图;点击带横线的绿色按钮缩小地图;或者点击绿色箭头查看邻近地区的地图。


METAR-TAF: